Latest Weather Observations for Albury

IDN60801

Issued at 12:03 pm EST Friday 29 July 2016 (issued every 30 minutes, with the page automatically refreshed every 10 minutes)

About weather observations | Map of weather stations | Latest weather observations for NSW | Other Formats
Station Details ID: 072160 Name: ALBURY AIRPORT AWS Lat: -36.07 Lon: 146.95 Height: 163.5 m
Data from the previous 72 hours. | See also: Recent months at Albury
Date/Time
EST
Temp
°C
App
Temp
°C
Dew
Point
°C
Rel
Hum
%
Delta-T
°C
Wind Press
QNH
hPa
Press
MSL
hPa
Rain since
9am
mm
Dir  Spd
km/h
Gust
km/h
Spd
kts
Gust
kts
29/12:00pm 10.8 6.6 7.5 80 1.6 W 19 28 10 15 1024.2 1024.5 0.0
29/11:39am 10.7 6.7 6.8 77 1.8 WNW 17 24 9 13 1024.5 1024.9 0.0
29/11:30am 10.9 7.1 7.6 80 1.6 WNW 17 26 9 14 1024.7 1025.1 0.0
29/11:00am 9.8 6.0 7.6 86 1.1 W 17 26 9 14 1025.1 1025.5 0.0
29/10:30am 10.6 6.2 6.7 77 1.9 W 19 26 10 14 1025.2 1025.6 0.0
29/10:00am 10.6 8.0 7.8 83 1.4 NW 11 17 6 9 1025.2 1025.6 0.0
29/09:30am 9.6 7.0 7.7 88 0.9 NW 11 17 6 9 1025.4 1025.8 0.0
29/09:00am 9.1 6.6 8.2 94 0.4 NW 11 15 6 8 1025.4 1025.8 0.8
29/08:30am 8.8 6.3 8.2 96 0.3 WNW 11 15 6 8 1025.6 1026.0 0.8
29/08:19am 8.8 6.8 8.8 100 0.0 WNW 9 13 5 7 1025.6 1026.0 0.8
29/08:00am 8.4 8.0 8.4 100 0.0 CALM 0 0 0 0 1025.4 1025.8 0.8
29/07:30am 8.3 7.9 8.3 100 0.0 CALM 0 0 0 0 1025.2 1025.6 0.8
29/07:00am 8.3 7.2 8.3 100 0.0 NNE 4 6 2 3 1025.0 1025.4 0.8
29/06:30am 8.1 7.7 8.1 100 0.0 CALM 0 0 0 0 1024.9 1025.3 0.8
29/06:00am 7.9 7.4 7.9 100 0.0 CALM 0 0 0 0 1024.8 1025.2 0.8
29/05:53am 8.0 7.5 8.0 100 0.0 CALM 0 0 0 0 1024.8 1025.2 0.8
29/05:30am 7.9 7.4 7.9 100 0.0 CALM 0 0 0 0 1024.7 1025.1 0.8
29/05:00am 8.1 6.9 8.1 100 0.0 E 4 7 2 4 1024.5 1024.9 0.8
29/04:57am 8.1 7.3 8.1 100 0.0 E 2 7 1 4 1024.5 1024.9 0.8
29/04:30am 8.1 7.7 8.1 100 0.0 CALM 0 0 0 0 1024.6 1025.0 0.6
29/04:00am 8.1 7.7 8.1 100 0.0 CALM 0 0 0 0 1024.4 1024.7 0.6
29/03:59am 8.1 7.7 8.1 100 0.0 CALM 0 0 0 0 1024.4 1024.7 0.6
29/03:30am 8.1 7.7 8.1 100 0.0 CALM 0 0 0 0 1024.7 1025.1 0.6
29/03:00am 8.1 7.7 8.1 100 0.0 CALM 0 0 0 0 1024.6 1025.0 0.6
29/02:30am 8.0 7.2 8.0 100 0.0 NNE 2 7 1 4 1024.8 1025.2 0.6
29/02:00am 8.1 6.9 8.1 100 0.0 ENE 4 6 2 3 1025.1 1025.5 0.6
29/01:51am 8.2 6.6 8.2 100 0.0 ENE 6 9 3 5 1025.1 1025.5 0.6
29/01:30am 8.1 7.7 8.1 100 0.0 CALM 0 0 0 0 1025.1 1025.5 0.6
29/01:00am 8.1 6.3 8.1 100 0.0 NNE 7 9 4 5 1025.2 1025.6 0.6
29/12:30am 8.2 6.5 8.2 100 0.0 E 7 9 4 5 1025.4 1025.8 0.6
29/12:26am 8.2 6.5 8.2 100 0.0 E 7 9 4 5 1025.4 1025.8 0.6
29/12:22am 8.2 7.0 8.2 100 0.0 ESE 4 9 2 5 1025.4 1025.8 0.6
29/12:10am 8.2 7.8 8.2 100 0.0 CALM 0 0 0 0 1025.6 1026.0 0.6
29/12:00am 8.2 7.4 8.2 100 0.0 S 2 6 1 3 1025.7 1026.1 0.4
 
Date/Time
EST
Temp
°C
App
Temp
°C
Dew
Point
°C
Rel
Hum
%
Delta-T
°C
Wind Press
QNH
hPa
Press
MSL
hPa
Rain since
9am
mm
Dir  Spd
km/h
Gust
km/h
Spd
kts
Gust
kts
28/11:55pm 8.1 7.3 8.1 100 0.0 S 2 6 1 3 1025.7 1026.1 0.2
28/11:45pm 8.0 6.8 8.0 100 0.0 S 4 6 2 3 1025.8 1026.2 0.2
28/11:41pm 8.0 7.2 8.0 100 0.0 S 2 6 1 3 1025.8 1026.2 0.2
28/11:32pm 8.1 7.7 8.1 100 0.0 CALM 0 0 0 0 1025.7 1026.1 0.2
28/11:30pm 8.1 7.7 8.1 100 0.0 CALM 0 0 0 0 1025.7 1026.1 0.2
28/11:21pm 8.1 7.7 8.1 100 0.0 CALM 0 0 0 0 1025.7 1026.1 0.2
28/11:00pm 8.0 6.4 8.0 100 0.0 N 6 9 3 5 1025.9 1026.3 0.2
28/10:32pm 7.9 6.1 7.9 100 0.0 NNE 7 7 4 4 1026.0 1026.4 0.2
28/10:30pm 7.8 6.0 7.8 100 0.0 NNE 7 9 4 5 1026.0 1026.4 0.2
28/10:22pm 8.0 6.2 8.0 100 0.0 NE 7 9 4 5 1026.1 1026.5 0.0
28/10:16pm 8.0 6.4 8.0 100 0.0 NE 6 7 3 4 1026.1 1026.5 0.0
28/10:00pm 8.0 6.4 8.0 100 0.0 NNE 6 6 3 3 1026.3 1026.7 0.0
28/09:30pm 7.8 6.0 7.8 100 0.0 NNE 7 9 4 5 1026.4 1026.8 0.0
28/09:00pm 8.4 6.7 8.4 100 0.0 NNE 7 9 4 5 1026.6 1027.0 0.0
28/08:59pm 8.4 6.7 8.4 100 0.0 NNE 7 9 4 5 1026.5 1026.9 0.0
28/08:47pm 8.3 6.6 8.3 100 0.0 NNE 7 7 4 4 1026.6 1027.0 0.0
28/08:30pm 8.4 6.9 8.4 100 0.0 NNE 6 7 3 4 1026.7 1027.1 0.0
28/08:25pm 8.3 6.7 8.2 99 0.0 NE 6 7 3 4 1026.7 1027.1 0.0
28/08:00pm 8.2 7.7 7.9 98 0.1 CALM 0 0 0 0 1026.6 1027.0 0.0
28/07:30pm 8.3 7.0 7.7 96 0.3 ENE 4 7 2 4 1026.6 1027.0 0.0
28/07:00pm 8.8 8.3 8.0 95 0.4 CALM 0 0 0 0 1026.5 1026.9 0.0
28/06:30pm 9.1 7.9 8.0 93 0.5 N 4 6 2 3 1026.3 1026.7 0.0
28/06:11pm 9.1 7.5 7.9 92 0.6 N 6 7 3 4 1026.1 1026.5 0.0
28/06:00pm 9.2 7.4 7.8 91 0.7 NNW 7 11 4 6 1026.1 1026.5 0.0
28/05:56pm 9.2 6.9 7.6 90 0.8 WNW 9 13 5 7 1026.0 1026.4 0.0
28/05:36pm 9.6 7.6 7.2 85 1.1 NW 7 9 4 5 1026.0 1026.4 0.0
28/05:30pm 9.6 7.7 7.4 86 1.1 NW 7 9 4 5 1026.0 1026.4 0.0
28/05:11pm 9.6 6.9 7.2 85 1.1 NW 11 15 6 8 1025.9 1026.3 0.0
28/05:00pm 9.6 6.4 7.0 84 1.2 NW 13 17 7 9 1025.9 1026.3 0.0
28/04:46pm 10.2 6.6 6.9 80 1.6 NW 15 19 8 10 1025.8 1026.2 0.0
28/04:30pm 10.5 7.3 6.8 78 1.8 WNW 13 15 7 8 1025.8 1026.2 0.0
28/04:00pm 10.5 7.6 6.6 77 1.8 NNW 11 15 6 8 1025.7 1026.1 0.0
28/03:30pm 10.7 8.6 6.8 77 1.9 NW 7 11 4 6 1025.7 1026.1 0.0
28/03:00pm 10.5 7.7 7.0 79 1.7 WNW 11 17 6 9 1025.7 1026.1 0.0
28/02:49pm 10.4 7.9 6.7 78 1.8 NW 9 15 5 8 1025.6 1026.0 0.0
28/02:35pm 10.4 7.6 6.9 79 1.7 NW 11 15 6 8 1025.6 1026.0 0.0
28/02:30pm 10.4 8.0 6.9 79 1.7 NW 9 15 5 8 1025.6 1026.0 0.0
28/02:00pm 10.0 8.0 7.3 83 1.3 NW 7 11 4 6 1025.8 1026.2 0.0
28/01:59pm 10.0 8.0 7.3 83 1.3 NW 7 11 4 6 1025.8 1026.2 0.0
28/01:51pm 9.8 7.9 7.4 85 1.2 NW 7 13 4 7 1025.9 1026.3 0.0
28/01:35pm 9.6 6.2 7.7 88 0.9 W 15 20 8 11 1026.2 1026.6 0.0
28/01:31pm 9.6 5.7 7.0 84 1.2 WNW 17 20 9 11 1026.2 1026.6 0.0
28/01:30pm 9.6 5.7 7.0 84 1.2 WNW 17 20 9 11 1026.2 1026.6 0.0
28/01:00pm 10.4 7.5 6.5 77 1.8 WNW 11 19 6 10 1026.3 1026.7 0.0
28/12:30pm 10.0 7.5 6.5 79 1.6 NW 9 15 5 8 1026.5 1026.9 0.0
28/12:00pm 9.5 5.3 5.9 78 1.7 WNW 17 20 9 11 1027.0 1027.4 0.0
28/11:30am 9.2 5.4 5.6 78 1.7 WNW 15 20 8 11 1027.3 1027.7 0.0
28/11:00am 9.3 5.2 6.0 80 1.5 W 17 22 9 12 1027.4 1027.8 0.0
28/10:30am 9.0 5.9 5.7 80 1.5 NW 11 15 6 8 1027.5 1027.9 0.0
28/10:00am 8.5 5.8 5.6 82 1.3 WNW 9 13 5 7 1027.3 1027.7 0.0
28/09:30am 8.4 5.8 5.9 84 1.1 WNW 9 15 5 8 1027.2 1027.6 0.0
28/09:00am 8.1 5.4 5.7 85 1.1 WNW 9 13 5 7 1027.2 1027.6 0.0
28/08:30am 8.0 5.3 5.6 85 1.1 NW 9 11 5 6 1026.9 1027.3 0.0
28/08:00am 7.8 5.5 5.6 86 1.0 NW 7 11 4 6 1026.6 1027.0 0.0
28/07:30am 7.6 4.9 5.4 86 1.0 WNW 9 11 5 6 1026.2 1026.6 0.0
28/07:00am 7.5 4.8 5.5 87 0.9 NW 9 13 5 7 1025.7 1026.1 0.0
28/06:30am 7.4 4.7 5.5 88 0.9 NW 9 11 5 6 1025.4 1025.8 0.0
28/06:00am 7.2 4.0 5.3 88 0.8 WNW 11 13 6 7 1025.2 1025.6 0.0
28/05:30am 6.8 4.1 5.6 92 0.5 W 9 11 5 6 1024.9 1025.3 0.0
28/05:00am 6.8 4.9 4.8 87 0.9 WSW 4 7 2 4 1024.6 1025.0 0.0
28/04:30am 7.1 4.6 4.8 85 1.0 WSW 7 9 4 5 1024.4 1024.7 0.0
28/04:00am 7.5 5.0 4.8 83 1.2 W 7 9 4 5 1024.5 1024.9 0.0
28/03:30am 7.1 4.2 4.8 85 1.0 W 9 11 5 6 1024.4 1024.7 0.0
28/03:00am 7.2 4.7 4.7 84 1.1 W 7 11 4 6 1024.4 1024.7 0.0
28/02:30am 7.3 4.8 4.6 83 1.2 W 7 11 4 6 1024.2 1024.5 0.0
28/02:00am 7.5 5.0 5.0 84 1.1 W 7 9 4 5 1024.0 1024.3 0.0
28/01:30am 7.4 4.9 4.7 83 1.2 WSW 7 11 4 6 1024.1 1024.4 0.0
28/01:00am 7.2 4.3 4.7 84 1.1 WSW 9 13 5 7 1023.8 1024.1 0.0
28/12:30am 6.1 3.0 3.8 85 1.0 W 9 13 5 7 1023.6 1023.9 0.0
28/12:00am 6.5 3.8 3.8 83 1.2 W 7 11 4 6 1023.5 1023.8 0.0
 
Date/Time
EST
Temp
°C
App
Temp
°C
Dew
Point
°C
Rel
Hum
%
Delta-T
°C
Wind Press
QNH
hPa
Press
MSL
hPa
Rain since
9am
mm
Dir  Spd
km/h
Gust
km/h
Spd
kts
Gust
kts
27/11:30pm 6.7 3.4 4.4 85 1.0 W 11 13 6 7 1023.4 1023.7 0.0
27/11:00pm 7.2 3.5 4.7 84 1.1 W 13 15 7 8 1023.6 1023.9 0.0
27/10:30pm 8.0 5.2 5.1 82 1.3 W 9 13 5 7 1023.6 1023.9 0.0
27/10:00pm 7.5 6.0 5.1 85 1.1 NW 2 9 1 5 1023.6 1023.9 0.0
27/09:30pm 7.0 4.0 4.1 82 1.3 WSW 9 13 5 7 1023.3 1023.6 0.0
27/09:00pm 7.6 5.0 4.2 79 1.5 W 7 11 4 6 1022.6 1022.9 0.0
27/08:30pm 8.0 5.5 4.6 79 1.5 W 7 11 4 6 1022.3 1022.6 0.0
27/08:00pm 8.2 5.4 5.0 80 1.4 WSW 9 13 5 7 1021.8 1022.2 0.0
27/07:30pm 9.2 5.4 5.6 78 1.7 WNW 15 19 8 10 1021.3 1021.7 0.0
27/07:00pm 10.1 6.5 6.8 80 1.6 W 15 22 8 12 1021.1 1021.5 0.0
27/06:30pm 10.0 6.3 7.8 86 1.1 W 17 22 9 12 1020.6 1021.0 0.0
27/06:00pm 10.1 6.3 7.7 85 1.2 NW 17 24 9 13 1019.8 1020.2 0.0
27/05:30pm 10.5 6.4 7.7 83 1.4 WNW 19 26 10 14 1019.2 1019.5 0.0
27/05:00pm 10.8 6.8 8.2 84 1.3 WNW 19 28 10 15 1018.7 1019.0 0.0
27/04:46pm 11.1 7.4 8.1 82 1.5 WNW 17 22 9 12 1018.4 1018.7 0.0
27/04:30pm 11.4 8.2 8.3 81 1.5 WNW 15 19 8 10 1017.9 1018.2 0.0
27/04:00pm 11.2 7.0 8.1 81 1.5 WNW 20 28 11 15 1017.8 1018.1 0.0
27/03:30pm 12.0 7.8 8.1 77 1.9 WNW 20 30 11 16 1017.4 1017.7 0.0
27/03:00pm 11.5 6.6 8.5 82 1.5 WNW 24 33 13 18 1017.0 1017.3 0.0
27/02:30pm 11.9 7.8 8.6 80 1.7 WNW 20 28 11 15 1016.2 1016.5 0.0
27/02:00pm 12.1 8.5 8.4 78 1.8 WNW 17 22 9 12 1015.9 1016.2 0.0
27/01:39pm 10.9 6.6 8.0 82 1.4 W 20 24 11 13 1016.0 1016.3 0.0
27/01:30pm 11.9 8.2 8.0 77 1.9 WNW 17 22 9 12 1015.8 1016.1 0.0
27/01:00pm 11.0 8.0 7.7 80 1.6 NW 13 19 7 10 1015.5 1015.9 0.0
27/12:51pm 11.4 8.6 8.6 83 1.4 NW 13 17 7 9 1015.6 1016.0 0.0
27/12:30pm 10.5 6.3 7.6 82 1.4 WNW 19 24 10 13 1015.8 1016.1 0.0
27/12:00pm 10.4 6.5 7.1 80 1.6 WNW 17 24 9 13 1015.9 1016.2 0.0
27/11:30am 10.6 6.8 7.7 82 1.4 W 17 22 9 12 1015.8 1016.1 0.0
27/11:29am 10.5 6.7 7.6 82 1.4 W 17 22 9 12 1015.8 1016.1 0.0
27/11:00am 10.1 5.7 7.5 84 1.3 WNW 20 28 11 15 1015.5 1015.9 0.0
27/10:30am 9.7 5.4 7.0 83 1.3 WNW 19 24 10 13 1015.1 1015.5 0.0
27/10:00am 10.1 5.6 7.0 81 1.5 W 20 32 11 17 1014.4 1014.8 0.0
27/09:30am 9.8 5.6 7.4 85 1.2 WNW 19 24 10 13 1013.8 1014.1 0.0
27/09:00am 9.5 5.8 7.9 90 0.8 WNW 17 24 9 13 1013.4 1013.7 10.6
27/08:58am 9.2 5.4 7.5 89 0.8 WNW 17 24 9 13 1013.3 1013.6 10.6
27/08:30am 8.5 5.1 7.6 94 0.4 W 15 22 8 12 1012.6 1012.9 10.6
27/08:20am 8.5 4.3 7.6 94 0.4 WNW 19 22 10 12 1012.3 1012.6 10.6
27/08:00am 8.2 4.4 7.6 96 0.3 WNW 17 22 9 12 1012.0 1012.3 10.6
27/07:54am 8.1 4.7 7.5 96 0.3 WNW 15 20 8 11 1011.9 1012.2 10.6
27/07:30am 8.0 5.1 8.0 100 0.0 W 13 17 7 9 1011.5 1011.8 10.6
27/07:25am 8.0 5.5 8.0 100 0.0 W 11 17 6 9 1011.4 1011.7 10.6
27/07:00am 7.9 4.2 7.9 100 0.0 W 17 30 9 16 1011.0 1011.3 10.0
27/06:33am 8.2 4.0 7.4 95 0.4 WNW 19 30 10 16 1010.2 1010.5 7.0
27/06:30am 8.2 4.0 7.3 94 0.4 WNW 19 30 10 16 1010.2 1010.5 7.0
27/06:00am 8.4 4.0 7.3 93 0.5 WNW 20 30 11 16 1009.6 1009.9 7.0
27/05:34am 8.4 3.2 7.3 93 0.5 WNW 24 37 13 20 1009.1 1009.4 7.0
27/05:30am 8.5 3.4 7.6 94 0.4 WNW 24 39 13 21 1009.0 1009.3 7.0
27/05:29am 8.5 3.4 7.6 94 0.4 WNW 24 39 13 21 1009.0 1009.3 7.0
27/05:00am 8.3 4.2 7.7 96 0.3 NW 19 32 10 17 1008.6 1008.9 6.8
27/04:56am 8.3 4.5 7.7 96 0.3 NW 17 32 9 17 1008.6 1008.9 6.8
27/04:52am 8.2 5.2 7.8 97 0.2 NW 13 20 7 11 1008.7 1009.0 6.8
27/04:30am 8.0 5.0 7.7 98 0.1 WNW 13 20 7 11 1008.6 1008.9 6.6
27/04:18am 8.0 5.4 7.7 98 0.1 NNW 11 13 6 7 1008.4 1008.7 6.4
27/04:15am 8.0 5.4 7.6 97 0.2 NNW 11 15 6 8 1008.4 1008.7 6.4
27/04:05am 8.0 5.4 7.6 97 0.2 NNW 11 15 6 8 1008.3 1008.6 6.0
27/04:04am 8.0 5.4 7.6 97 0.2 NNW 11 15 6 8 1008.4 1008.7 6.0
27/04:00am 8.0 5.3 7.4 96 0.3 NNW 11 17 6 9 1008.3 1008.6 5.8
27/03:49am 8.1 4.3 7.5 96 0.3 N 17 24 9 13 1008.3 1008.6 5.8
27/03:33am 8.1 5.1 7.5 96 0.3 N 13 20 7 11 1008.5 1008.8 5.6
27/03:30am 8.1 5.1 7.5 96 0.3 N 13 20 7 11 1008.4 1008.7 5.6
27/03:00am 8.0 4.9 7.2 95 0.4 NNW 13 17 7 9 1008.9 1009.2 5.0
27/02:30am 8.1 4.6 7.2 94 0.4 N 15 22 8 12 1009.2 1009.6 4.6
27/02:25am 8.0 4.1 7.1 94 0.4 NNE 17 28 9 15 1009.1 1009.4 4.6
27/02:00am 7.8 5.4 7.1 95 0.3 NNE 9 17 5 9 1009.8 1010.1 4.2
27/01:41am 7.3 4.8 6.4 94 0.4 NE 9 15 5 8 1010.0 1010.3 3.8
27/01:30am 7.4 5.3 6.5 94 0.4 NNE 7 9 4 5 1010.5 1010.8 3.0
27/01:21am 7.4 5.4 6.2 92 0.5 NE 6 9 3 5 1010.6 1010.9 2.6
27/01:00am 7.6 4.6 6.2 91 0.6 ENE 11 13 6 7 1010.5 1010.8 1.6
27/12:30am 7.8 5.5 5.9 88 0.9 N 7 11 4 6 1011.2 1011.5 1.4
27/12:00am 8.3 3.7 5.6 83 1.2 N 19 28 10 15 1011.3 1011.6 1.0
 
Date/Time
EST
Temp
°C
App
Temp
°C
Dew
Point
°C
Rel
Hum
%
Delta-T
°C
Wind Press
QNH
hPa
Press
MSL
hPa
Rain since
9am
mm
Dir  Spd
km/h
Gust
km/h
Spd
kts
Gust
kts
26/11:30pm 8.6 4.6 5.0 78 1.6 N 15 20 8 11 1011.8 1012.1 0.8
26/11:00pm 8.6 4.6 4.8 77 1.7 N 15 22 8 12 1012.3 1012.6 0.8
26/10:30pm 8.5 5.6 4.5 76 1.8 N 9 15 5 8 1012.5 1012.8 0.8
26/10:00pm 8.0 4.4 4.9 81 1.4 NE 13 15 7 8 1012.3 1012.6 0.8
26/09:30pm 8.4 4.8 4.8 78 1.6 N 13 19 7 10 1013.0 1013.3 0.8
26/09:00pm 8.6 5.7 4.6 76 1.8 N 9 15 5 8 1013.4 1013.7 0.8
26/08:30pm 8.3 6.0 4.9 79 1.5 NNE 6 9 3 5 1013.5 1013.8 0.8
26/08:00pm 8.6 5.8 5.2 79 1.5 N 9 11 5 6 1013.7 1014.0 0.8
26/07:30pm 8.3 6.2 5.9 85 1.1 NNE 6 9 3 5 1013.9 1014.2 0.8
26/07:00pm 8.2 6.1 6.0 86 1.0 NNE 6 9 3 5 1013.8 1014.1 0.8
26/06:30pm 8.4 6.2 5.5 82 1.3 NNW 6 7 3 4 1014.0 1014.3 0.8
26/06:00pm 8.1 6.1 6.2 88 0.9 N 6 9 3 5 1013.6 1013.9 0.8
26/05:30pm 8.1 6.0 6.6 90 0.7 ENE 7 7 4 4 1013.6 1013.9 0.8
26/05:00pm 8.4 6.1 5.7 83 1.2 N 7 9 4 5 1013.6 1013.9 0.8
26/04:30pm 8.3 6.1 6.1 86 1.0 WNW 7 9 4 5 1013.8 1014.1 0.8
26/04:00pm 8.1 4.0 6.4 89 0.8 WNW 17 22 9 12 1014.1 1014.4 0.8
26/03:30pm 9.0 4.4 5.6 79 1.6 WNW 19 26 10 14 1014.1 1014.4 0.4
26/03:00pm 9.7 4.8 4.9 72 2.2 NNW 20 30 11 16 1014.1 1014.4 0.2
26/02:30pm 9.5 5.7 5.9 78 1.7 WNW 15 22 8 12 1014.3 1014.7 0.2
26/02:00pm 9.2 4.2 4.6 73 2.1 NNW 20 28 11 15 1014.6 1015.0 0.0
26/01:30pm 11.1 7.2 5.4 68 2.6 NW 15 20 8 11 1014.9 1015.3 0.0
26/01:00pm 10.1 4.7 4.5 68 2.5 NW 22 30 12 16 1015.5 1015.9 0.0
26/12:30pm 10.1 5.1 4.7 69 2.4 WNW 20 26 11 14 1016.1 1016.4 0.0

Other Formats:

Comma delimited format used in spreadsheet applications
http://www.bom.gov.au/fwo/IDN60801/IDN60801.95896.axf

JavaScript Object Notation format (JSON) in row-major order
http://www.bom.gov.au/fwo/IDN60801/IDN60801.95896.json